Gallatin, TN (37066)

4:09 AM CDT on April 27, 2017 (GMT -0500)
Cottages of Last Plantation | | Change Station

Elev 499 ft 36.36 °N, 86.49 °W | Updated 28 seconds ago

Overcast
Overcast
62.7 °F
Feels Like 62.7 °F
N
0.0
Wind Variable Wind from South

Today
High -- | Low -- °F
--% Chance of Precip.
Yesterday
High -- | Low -- °F
Precip. -- in
Pressure 29.61 in
Visibility 10.0 miles
Clouds Mostly Cloudy 700 ft
Mostly Cloudy 2800 ft
Overcast 3300 ft
Dew Point 61 °F
Humidity 93%
Rainfall 0.29 in
Snow Depth Not available.
5:56 AM 7:30 PM
New Moon, 1% visible
SPECI KBNA 270857Z 21003KT 10SM -RA BKN007 BKN028 OVC033 18/17 A2961 RMK AO2 P0000 T01780172
Pressure 29.61 in
Visibility 10.0 miles
Clouds Mostly Cloudy 700 ft
Mostly Cloudy 2800 ft
Overcast 3300 ft
Dew Point 61 °F
Humidity 93%
Rainfall 0.29 in
Snow Depth Not available.
5:56 AM 7:30 PM
New Moon, 1% visible
SPECI KBNA 270857Z 21003KT 10SM -RA BKN007 BKN028 OVC033 18/17 A2961 RMK AO2 P0000 T01780172

Get Severe Weather Alerts

Thanks for signing up!

Be on the lookout for a verification email in your inbox.

You'll start receiving the daily forecast at 8 AM.

×

10-Day Weather Forecast

Almanac

Astronomy

Apr. 27, 2017 Rise Set
Actual Time
Civil Twilight
Nautical Twilight
Astronomical Twilight
Moon
Length of Visible Light
Length of Day
Tomorrow will be .
, % of the Moon is Illuminated

Today's Extremes

State Highs State Lows

Community

WunderPhotos

WunderBlog® & News

Nearby

Air Quality

  Air Quality AQ Index Pollutant
Not available.

Snow Depth

Station Depth Elevation

Earthquake Activity

City Distance Mag. Time & Date
Minimum magnitude displayed is 2.5.

Coastal Water Temperatures

Place Temperature

Stations

Nearby Weather Stations

Station Location Temp. Windchill Dew Point Humidity Wind Precip. Elev Updated Type
                   

Watches & Warnings

There are currently no watches in effect.